createdAt,value
2022-11-30T00:01:15.101Z,69.46
2022-11-30T00:03:42.060Z,69.88
2022-11-30T00:06:11.448Z,69.79
2022-11-30T00:08:38.454Z,68.76
2022-11-30T00:11:21.280Z,68.99
2022-11-30T00:13:48.559Z,69.19
2022-11-30T00:16:15.458Z,69.22
2022-11-30T00:18:42.506Z,69.17
2022-11-30T00:21:12.640Z,69.49
2022-11-30T00:23:42.728Z,69.27
2022-11-30T00:26:12.036Z,69.75
2022-11-30T00:28:39.269Z,69.76
2022-11-30T00:31:11.387Z,69.69
2022-11-30T00:33:39.195Z,70.01
2022-11-30T00:36:08.608Z,70.19
2022-11-30T00:38:36.065Z,70.58
2022-11-30T00:41:03.670Z,70.57
2022-11-30T00:43:30.997Z,70.68
2022-11-30T00:45:58.392Z,70.44
2022-11-30T00:48:25.563Z,70.22
2022-11-30T00:50:52.329Z,69.93
2022-11-30T00:53:19.858Z,69.72
2022-11-30T00:55:47.627Z,69.77
2022-11-30T00:58:14.885Z,69.91
2022-11-30T01:00:41.960Z,69.85
2022-11-30T01:03:09.412Z,70.15
2022-11-30T01:05:36.877Z,69.83
2022-11-30T01:08:05.915Z,69.66
2022-11-30T01:10:33.769Z,69.41
2022-11-30T01:13:00.804Z,69.78
2022-11-30T01:15:27.674Z,69.69
2022-11-30T01:17:54.303Z,70.00
2022-11-30T01:20:20.898Z,69.78
2022-11-30T01:22:47.592Z,69.74
2022-11-30T01:25:14.314Z,69.76
2022-11-30T01:27:41.418Z,69.62
2022-11-30T01:30:08.623Z,69.76
2022-11-30T01:32:35.333Z,69.46
2022-11-30T01:35:02.101Z,69.39
2022-11-30T01:37:30.088Z,69.81
2022-11-30T01:39:56.958Z,69.81
2022-11-30T01:42:23.831Z,70.03
2022-11-30T01:44:57.836Z,69.96
2022-11-30T01:47:34.680Z,70.52
2022-11-30T01:50:09.971Z,70.70
2022-11-30T01:52:48.902Z,71.55
2022-11-30T01:55:29.698Z,71.88
2022-11-30T01:58:01.940Z,71.76
2022-11-30T02:00:28.885Z,71.07
2022-11-30T02:03:05.844Z,71.37
2022-11-30T02:05:37.236Z,71.17
2022-11-30T02:08:05.659Z,71.55
2022-11-30T02:10:35.736Z,71.46
2022-11-30T02:13:37.329Z,71.47
2022-11-30T02:16:14.674Z,71.85
2022-11-30T02:18:56.449Z,71.75
2022-11-30T02:21:42.124Z,71.31
2022-11-30T02:24:11.876Z,71.49
2022-11-30T02:26:57.355Z,71.53
2022-11-30T02:29:41.108Z,72.33
2022-11-30T02:32:14.262Z,72.46
2022-11-30T02:34:44.570Z,72.53
2022-11-30T02:37:13.814Z,72.84
2022-11-30T02:39:40.524Z,72.87
2022-11-30T02:42:13.106Z,73.28
2022-11-30T02:44:50.209Z,73.78
2022-11-30T02:47:26.070Z,74.33
2022-11-30T02:50:22.792Z,74.58
2022-11-30T02:52:51.252Z,74.71
2022-11-30T02:55:20.292Z,74.74
2022-11-30T02:57:47.033Z,75.01
2022-11-30T03:00:15.431Z,75.38
2022-11-30T03:02:42.167Z,75.51
2022-11-30T03:05:09.319Z,76.05
2022-11-30T03:07:36.246Z,75.47
2022-11-30T03:10:03.975Z,75.61
2022-11-30T03:12:30.666Z,75.29
2022-11-30T03:14:57.214Z,75.09
2022-11-30T03:17:23.841Z,74.53
2022-11-30T03:19:50.568Z,74.52
2022-11-30T03:22:17.171Z,74.11
2022-11-30T03:24:43.835Z,73.73
2022-11-30T03:27:10.475Z,73.18
2022-11-30T03:29:37.143Z,72.91
2022-11-30T03:32:04.161Z,72.74
2022-11-30T03:34:31.005Z,72.48
2022-11-30T03:36:57.871Z,72.59
2022-11-30T03:39:24.893Z,72.55
2022-11-30T03:41:51.737Z,72.20
2022-11-30T03:44:18.701Z,71.70
2022-11-30T03:46:45.410Z,72.11
2022-11-30T03:49:12.026Z,72.68
2022-11-30T03:51:38.801Z,71.58
2022-11-30T03:54:05.403Z,71.76
2022-11-30T03:56:31.984Z,71.96
2022-11-30T03:58:58.681Z,71.34
2022-11-30T04:01:25.864Z,71.78
2022-11-30T04:03:52.810Z,72.04
2022-11-30T04:06:20.706Z,71.73
2022-11-30T04:08:47.648Z,72.03
2022-11-30T04:11:15.048Z,71.71
2022-11-30T04:13:42.690Z,71.47
2022-11-30T04:16:10.210Z,71.56
2022-11-30T04:18:37.698Z,71.35
2022-11-30T04:21:05.101Z,71.00
2022-11-30T04:23:37.559Z,71.24
2022-11-30T04:26:09.154Z,71.00
2022-11-30T04:28:35.781Z,70.98
2022-11-30T04:31:03.205Z,70.70
2022-11-30T04:33:30.549Z,71.04
2022-11-30T04:36:03.494Z,70.61
2022-11-30T04:38:30.979Z,70.60
2022-11-30T04:40:57.544Z,70.67
2022-11-30T04:43:24.841Z,70.53
2022-11-30T04:45:51.761Z,70.40
2022-11-30T04:48:19.657Z,70.82
2022-11-30T04:50:46.233Z,70.83
2022-11-30T04:53:12.847Z,70.17
2022-11-30T04:55:39.508Z,70.51
2022-11-30T04:58:07.163Z,70.42
2022-11-30T05:00:34.664Z,70.64
2022-11-30T05:03:02.603Z,70.54
2022-11-30T05:05:29.350Z,70.65
2022-11-30T05:07:58.562Z,70.63
2022-11-30T05:10:26.687Z,70.29
2022-11-30T05:12:53.423Z,70.24
2022-11-30T05:15:20.361Z,70.66
2022-11-30T05:17:47.039Z,70.77
2022-11-30T05:20:14.056Z,70.54
2022-11-30T05:22:41.940Z,70.78
2022-11-30T05:25:09.376Z,70.59
2022-11-30T05:27:36.771Z,70.87
2022-11-30T05:30:04.849Z,70.78
2022-11-30T05:32:31.460Z,71.07
2022-11-30T05:34:58.790Z,71.18
2022-11-30T05:37:25.638Z,70.80
2022-11-30T05:39:52.280Z,71.16
2022-11-30T05:42:18.941Z,71.12
2022-11-30T05:44:46.052Z,71.07
2022-11-30T05:47:13.392Z,70.65
2022-11-30T05:49:40.628Z,71.20
2022-11-30T05:52:07.319Z,70.88
2022-11-30T05:54:34.681Z,71.33
2022-11-30T05:57:01.515Z,70.97
2022-11-30T05:59:28.093Z,70.75
2022-11-30T06:01:54.956Z,70.87
2022-11-30T06:04:22.465Z,70.84
2022-11-30T06:06:49.613Z,70.72
2022-11-30T06:09:16.575Z,70.86
2022-11-30T06:11:43.270Z,71.00
2022-11-30T06:14:09.803Z,70.58
2022-11-30T06:16:39.130Z,70.69
2022-11-30T06:19:05.873Z,70.67
2022-11-30T06:21:32.408Z,70.65
2022-11-30T06:23:59.010Z,70.78
2022-11-30T06:26:25.549Z,70.64
2022-11-30T06:28:52.224Z,70.45
2022-11-30T06:31:18.884Z,70.26
2022-11-30T06:33:45.578Z,70.26
2022-11-30T06:36:12.290Z,70.58
2022-11-30T06:38:38.893Z,70.82
2022-11-30T06:41:09.898Z,70.41
2022-11-30T06:43:38.015Z,70.81
2022-11-30T06:46:06.075Z,70.54
2022-11-30T06:48:33.676Z,70.58
2022-11-30T06:51:00.608Z,70.15
2022-11-30T06:53:27.987Z,70.28
2022-11-30T06:55:54.625Z,69.96
2022-11-30T06:58:21.276Z,70.17
2022-11-30T07:00:48.105Z,70.38
2022-11-30T07:03:14.941Z,70.06
2022-11-30T07:05:44.641Z,70.03
2022-11-30T07:08:11.697Z,69.97
2022-11-30T07:10:45.475Z,70.32
2022-11-30T07:13:13.940Z,70.05
2022-11-30T07:15:42.001Z,70.19
2022-11-30T07:18:09.802Z,70.10
2022-11-30T07:20:39.786Z,70.14
2022-11-30T07:23:25.041Z,70.03
2022-11-30T07:26:08.153Z,70.08
2022-11-30T07:28:40.385Z,69.94
2022-11-30T07:31:36.146Z,69.80
2022-11-30T07:34:06.875Z,69.58
2022-11-30T07:36:34.622Z,69.85
2022-11-30T07:39:01.419Z,69.36
2022-11-30T07:41:28.049Z,69.65
2022-11-30T07:43:54.723Z,69.06
2022-11-30T07:46:21.487Z,69.28
2022-11-30T07:48:48.224Z,69.36
2022-11-30T07:51:17.925Z,68.93
2022-11-30T07:53:44.872Z,68.89
2022-11-30T07:56:19.615Z,68.94
2022-11-30T07:58:49.862Z,68.57
2022-11-30T08:01:22.365Z,68.96
2022-11-30T08:03:50.262Z,68.94
2022-11-30T08:06:22.234Z,69.22
2022-11-30T08:08:51.780Z,68.83
2022-11-30T08:11:21.852Z,69.12
2022-11-30T08:13:48.899Z,69.10
2022-11-30T08:16:18.274Z,68.96
2022-11-30T08:18:45.353Z,68.63
2022-11-30T08:21:14.390Z,68.79
2022-11-30T08:23:46.839Z,68.39
2022-11-30T08:26:19.441Z,68.59
2022-11-30T08:28:48.527Z,68.35
2022-11-30T08:31:21.310Z,68.53
2022-11-30T08:33:48.670Z,68.28
2022-11-30T08:36:21.313Z,68.54
2022-11-30T08:38:49.155Z,68.74
2022-11-30T08:41:19.315Z,68.15
2022-11-30T08:43:46.379Z,67.98
2022-11-30T08:46:48.958Z,68.22
2022-11-30T08:54:39.149Z,69.06
2022-11-30T08:57:05.912Z,68.79
2022-11-30T08:59:32.666Z,69.26
2022-11-30T09:02:01.086Z,68.82
2022-11-30T09:04:27.798Z,68.97
2022-11-30T09:06:58.906Z,68.59
2022-11-30T09:09:25.810Z,68.56
2022-11-30T09:11:52.480Z,68.83
2022-11-30T09:14:19.124Z,68.36
2022-11-30T09:16:45.685Z,67.80
2022-11-30T09:19:12.424Z,68.08
2022-11-30T09:21:39.149Z,68.12
2022-11-30T09:24:06.257Z,68.32
2022-11-30T09:26:32.867Z,68.13
2022-11-30T09:29:03.263Z,68.48
2022-11-30T09:31:30.080Z,68.38
2022-11-30T09:33:58.116Z,67.96
2022-11-30T09:36:29.957Z,68.41
2022-11-30T09:38:57.126Z,68.55
2022-11-30T09:41:39.024Z,68.24
2022-11-30T09:44:17.694Z,68.47
2022-11-30T09:46:55.086Z,68.61
2022-11-30T09:49:30.240Z,68.23
2022-11-30T09:52:01.130Z,68.47
2022-11-30T09:54:40.941Z,68.88
2022-11-30T09:57:26.353Z,68.64
2022-11-30T09:59:58.922Z,68.78
2022-11-30T10:02:31.144Z,68.51
2022-11-30T10:04:58.394Z,68.61
2022-11-30T10:07:46.626Z,68.39
2022-11-30T10:10:34.769Z,67.96
2022-11-30T10:13:13.576Z,67.81
2022-11-30T10:15:43.282Z,67.62
2022-11-30T10:18:27.567Z,67.43
2022-11-30T10:21:30.602Z,67.78
2022-11-30T10:24:24.663Z,67.62
2022-11-30T10:27:02.568Z,67.39
2022-11-30T10:29:37.029Z,67.14
2022-11-30T10:32:27.255Z,66.66
2022-11-30T10:35:16.061Z,66.30
2022-11-30T10:37:44.468Z,66.09
2022-11-30T10:40:19.916Z,65.68
2022-11-30T10:43:09.626Z,64.62
2022-11-30T10:45:40.173Z,64.60
2022-11-30T10:48:15.349Z,64.42
2022-11-30T10:50:42.198Z,63.57
2022-11-30T10:53:11.817Z,62.61
2022-11-30T10:55:45.444Z,62.91
2022-11-30T10:58:38.474Z,62.21
2022-11-30T11:01:08.488Z,62.32
2022-11-30T11:03:35.875Z,62.22
2022-11-30T11:06:23.771Z,61.94
2022-11-30T11:08:51.481Z,61.77
2022-11-30T11:11:38.299Z,61.59
2022-11-30T11:14:10.019Z,61.25
2022-11-30T11:17:07.012Z,61.36
2022-11-30T11:19:36.945Z,61.59
2022-11-30T11:22:19.444Z,61.48
2022-11-30T11:24:47.275Z,60.73
2022-11-30T11:27:26.191Z,60.20
2022-11-30T11:30:28.876Z,59.63
2022-11-30T11:33:10.753Z,60.64
2022-11-30T11:35:46.243Z,60.70
2022-11-30T11:38:39.066Z,60.16
2022-11-30T11:41:13.226Z,59.96
2022-11-30T11:44:04.957Z,60.09
2022-11-30T11:46:34.799Z,59.92
2022-11-30T11:49:04.705Z,60.16
2022-11-30T11:51:38.328Z,59.97
2022-11-30T11:54:24.436Z,59.68
2022-11-30T11:56:52.941Z,59.99
2022-11-30T11:59:32.805Z,59.71
2022-11-30T12:02:14.355Z,59.62
2022-11-30T12:04:54.266Z,59.42
2022-11-30T12:07:37.266Z,59.49
2022-11-30T12:10:50.125Z,58.62
2022-11-30T12:13:18.663Z,56.62
2022-11-30T12:15:57.924Z,56.78
2022-11-30T12:18:34.093Z,56.55
2022-11-30T12:21:07.677Z,56.51
2022-11-30T12:24:00.550Z,57.13
2022-11-30T12:26:31.367Z,57.03
2022-11-30T12:29:18.377Z,57.79
2022-11-30T12:32:20.567Z,56.35
2022-11-30T12:35:19.645Z,55.21
2022-11-30T12:37:52.797Z,54.48
2022-11-30T12:40:33.601Z,54.79
2022-11-30T12:43:15.599Z,55.69
2022-11-30T12:45:47.745Z,56.28
2022-11-30T12:48:38.743Z,56.28
2022-11-30T12:51:30.036Z,56.62
2022-11-30T12:54:13.059Z,56.55
2022-11-30T12:57:05.481Z,56.67
2022-11-30T12:59:55.583Z,57.52
2022-11-30T13:02:46.919Z,57.91
2022-11-30T13:05:42.997Z,58.02
2022-11-30T13:08:27.674Z,57.91
2022-11-30T13:11:01.757Z,58.25
2022-11-30T13:13:35.429Z,58.79
2022-11-30T13:16:05.804Z,59.17
2022-11-30T13:18:34.757Z,59.53
2022-11-30T13:21:30.830Z,59.43
2022-11-30T13:24:23.052Z,60.02
2022-11-30T13:27:00.780Z,60.44
2022-11-30T13:29:39.552Z,59.56
2022-11-30T13:32:33.973Z,59.58
2022-11-30T13:35:30.420Z,60.06
2022-11-30T13:38:36.877Z,60.29
2022-11-30T13:41:07.396Z,60.45
2022-11-30T13:43:51.749Z,60.55
2022-11-30T13:46:23.826Z,60.71
2022-11-30T13:49:11.553Z,60.46
2022-11-30T13:51:40.393Z,60.82
2022-11-30T13:54:44.465Z,61.01
2022-11-30T13:57:25.850Z,61.26
2022-11-30T13:59:58.132Z,62.15
2022-11-30T14:02:54.123Z,61.69
2022-11-30T14:05:36.493Z,62.32
2022-11-30T14:08:03.145Z,62.17
2022-11-30T14:10:30.932Z,62.00
2022-11-30T14:13:10.589Z,61.73
2022-11-30T14:15:37.251Z,61.62
2022-11-30T14:18:10.730Z,61.40
2022-11-30T14:20:51.350Z,61.64
2022-11-30T14:23:26.727Z,62.10
2022-11-30T14:25:57.017Z,62.28
2022-11-30T14:28:38.392Z,61.77
2022-11-30T14:31:09.978Z,62.43
2022-11-30T14:33:47.873Z,62.66
2022-11-30T14:36:15.124Z,62.76
2022-11-30T14:38:42.818Z,63.30
2022-11-30T14:41:28.008Z,62.84
2022-11-30T14:44:00.064Z,63.12
2022-11-30T14:46:27.746Z,62.73
2022-11-30T14:49:12.910Z,62.97
2022-11-30T14:51:40.352Z,63.13
2022-11-30T14:54:19.401Z,63.00
2022-11-30T14:56:50.435Z,63.41
2022-11-30T14:59:35.323Z,63.14
2022-11-30T15:02:06.130Z,62.97
2022-11-30T15:04:36.017Z,63.30
2022-11-30T15:07:02.543Z,62.76
2022-11-30T15:09:32.332Z,62.83
2022-11-30T15:11:58.844Z,62.88
2022-11-30T15:14:25.707Z,63.23
2022-11-30T15:16:57.380Z,63.01
2022-11-30T15:19:30.567Z,62.77
2022-11-30T15:21:58.775Z,62.61
2022-11-30T15:24:27.053Z,62.81
2022-11-30T15:26:56.808Z,63.46
2022-11-30T15:29:33.788Z,63.62
2022-11-30T15:32:05.130Z,63.90
2022-11-30T15:34:47.089Z,63.88
2022-11-30T15:37:14.180Z,64.15
2022-11-30T15:39:47.940Z,64.16
2022-11-30T15:42:28.739Z,64.18
2022-11-30T15:45:26.841Z,64.45
2022-11-30T15:47:55.587Z,64.39
2022-11-30T15:50:31.282Z,64.38
2022-11-30T15:53:22.388Z,64.43
2022-11-30T15:55:50.992Z,64.13
2022-11-30T15:58:37.192Z,64.40
2022-11-30T16:01:11.295Z,64.00
2022-11-30T16:03:56.930Z,64.28
2022-11-30T16:06:47.736Z,64.05
2022-11-30T16:09:33.375Z,64.78
2022-11-30T16:12:01.770Z,65.11
2022-11-30T16:14:28.686Z,64.82
2022-11-30T16:16:55.885Z,64.28
2022-11-30T16:19:22.781Z,64.23
2022-11-30T16:21:50.383Z,64.19
2022-11-30T16:24:17.769Z,64.61
2022-11-30T16:26:52.286Z,64.74
2022-11-30T16:29:22.736Z,64.87
2022-11-30T16:31:49.582Z,64.75
2022-11-30T16:34:16.240Z,64.11
2022-11-30T16:36:42.940Z,63.84
2022-11-30T16:39:12.421Z,63.89
2022-11-30T16:41:39.101Z,64.66
2022-11-30T16:44:12.287Z,64.24
2022-11-30T16:46:38.821Z,64.48
2022-11-30T16:49:05.463Z,64.25
2022-11-30T16:51:34.783Z,64.42
2022-11-30T16:54:01.632Z,64.39
2022-11-30T16:56:28.339Z,64.29
2022-11-30T16:58:55.089Z,64.32
2022-11-30T17:01:34.874Z,64.48
2022-11-30T17:04:13.221Z,64.33
2022-11-30T17:06:39.887Z,63.89
2022-11-30T17:09:09.927Z,63.48
2022-11-30T17:11:37.966Z,62.92
2022-11-30T17:14:05.322Z,63.15
2022-11-30T17:16:32.715Z,63.17
2022-11-30T17:18:59.321Z,63.29
2022-11-30T17:21:32.739Z,63.39
2022-11-30T17:23:59.636Z,63.76
2022-11-30T17:26:26.527Z,63.26
2022-11-30T17:28:53.596Z,63.16
2022-11-30T17:31:21.109Z,62.63
2022-11-30T17:33:48.717Z,62.46
2022-11-30T17:36:17.315Z,63.18
2022-11-30T17:38:44.231Z,63.44
2022-11-30T17:41:18.955Z,63.61
2022-11-30T17:43:47.153Z,63.98
2022-11-30T17:46:17.044Z,63.69
2022-11-30T17:48:44.092Z,63.29
2022-11-30T17:51:11.840Z,63.40
2022-11-30T17:53:39.740Z,62.83
2022-11-30T17:56:11.049Z,63.53
2022-11-30T17:58:43.408Z,63.27
2022-11-30T18:01:25.530Z,63.30
2022-11-30T18:03:53.244Z,63.49
2022-11-30T18:06:20.357Z,63.52
2022-11-30T18:08:47.287Z,63.38
2022-11-30T18:11:16.861Z,63.40
2022-11-30T18:13:44.069Z,63.59
2022-11-30T18:16:14.354Z,63.57
2022-11-30T18:18:47.118Z,63.61
2022-11-30T18:21:16.728Z,63.68
2022-11-30T18:23:43.734Z,64.14
2022-11-30T18:26:15.904Z,64.03
2022-11-30T18:28:43.555Z,63.36
2022-11-30T18:31:11.410Z,63.19
2022-11-30T18:33:38.922Z,63.42
2022-11-30T18:36:07.733Z,62.78
2022-11-30T18:38:38.495Z,62.65
2022-11-30T18:41:06.654Z,62.67
2022-11-30T18:43:34.308Z,62.60
2022-11-30T18:46:06.223Z,61.82
2022-11-30T18:48:33.012Z,62.12
2022-11-30T18:51:00.015Z,61.11
2022-11-30T18:53:26.731Z,61.25
2022-11-30T18:55:53.387Z,60.41
2022-11-30T18:58:20.008Z,60.07
2022-11-30T19:00:46.655Z,59.36
2022-11-30T19:03:13.282Z,59.09
2022-11-30T19:05:40.945Z,58.86
2022-11-30T19:08:14.292Z,59.00
2022-11-30T19:10:41.122Z,59.22
2022-11-30T19:13:07.944Z,58.84
2022-11-30T19:15:39.965Z,58.88
2022-11-30T19:18:07.873Z,58.89
2022-11-30T19:20:41.799Z,59.55
2022-11-30T19:23:08.743Z,58.90
2022-11-30T19:25:36.056Z,58.81
2022-11-30T19:28:02.785Z,59.39
2022-11-30T19:30:29.624Z,58.91
2022-11-30T19:32:56.207Z,58.97
2022-11-30T19:35:25.011Z,58.34
2022-11-30T19:37:52.442Z,58.70
2022-11-30T19:40:19.195Z,59.02
2022-11-30T19:42:45.851Z,58.94
2022-11-30T19:45:12.611Z,58.72
2022-11-30T19:47:39.248Z,58.98
2022-11-30T19:50:06.333Z,58.71
2022-11-30T19:52:32.979Z,58.58
2022-11-30T19:54:59.639Z,58.80
2022-11-30T19:57:26.451Z,58.66
2022-11-30T19:59:53.102Z,58.43
2022-11-30T20:02:20.149Z,58.67
2022-11-30T20:04:48.452Z,58.13
2022-11-30T20:07:16.080Z,58.20
2022-11-30T20:09:42.812Z,58.64
2022-11-30T20:12:09.403Z,58.84
2022-11-30T20:14:36.882Z,58.11
2022-11-30T20:17:03.846Z,58.61
2022-11-30T20:19:31.797Z,58.80
2022-11-30T20:21:59.416Z,59.00
2022-11-30T20:24:26.717Z,58.66
2022-11-30T20:26:53.432Z,58.59
2022-11-30T20:29:20.072Z,58.76
2022-11-30T20:31:48.547Z,58.48
2022-11-30T20:34:16.672Z,58.49
2022-11-30T20:36:43.999Z,58.72
2022-11-30T20:39:11.551Z,58.42
2022-11-30T20:41:38.333Z,58.30
2022-11-30T20:44:05.256Z,58.64
2022-11-30T20:46:35.133Z,58.54
2022-11-30T20:49:04.430Z,58.24
2022-11-30T20:51:34.830Z,57.84
2022-11-30T20:54:05.773Z,58.27
2022-11-30T20:56:35.296Z,58.42
2022-11-30T20:59:03.903Z,58.21
2022-11-30T21:01:30.804Z,58.29
2022-11-30T21:03:59.615Z,58.46
2022-11-30T21:06:27.317Z,58.71
2022-11-30T21:08:54.113Z,58.42
2022-11-30T21:11:21.416Z,58.09
2022-11-30T21:13:49.821Z,58.02
2022-11-30T21:16:24.089Z,58.27
2022-11-30T21:18:53.825Z,58.08
2022-11-30T21:21:22.977Z,57.95
2022-11-30T21:23:50.913Z,58.21
2022-11-30T21:26:20.435Z,57.64
2022-11-30T21:28:47.905Z,57.89
2022-11-30T21:31:15.883Z,57.17
2022-11-30T21:33:45.867Z,57.80
2022-11-30T21:36:19.248Z,56.77
2022-11-30T21:38:46.065Z,57.32
2022-11-30T21:41:14.382Z,56.70
2022-11-30T21:43:41.719Z,57.23
2022-11-30T21:46:12.310Z,57.03
2022-11-30T21:48:41.164Z,56.83
2022-11-30T21:51:13.119Z,57.16
2022-11-30T21:53:48.643Z,56.86
2022-11-30T21:56:19.549Z,56.82
2022-11-30T21:58:48.251Z,57.08
2022-11-30T22:01:28.096Z,56.86
2022-11-30T22:03:56.336Z,56.98
2022-11-30T22:06:24.214Z,57.30
2022-11-30T22:08:51.334Z,57.17
2022-11-30T22:11:22.509Z,57.26
2022-11-30T22:13:51.078Z,57.21
2022-11-30T22:16:19.079Z,57.46
2022-11-30T22:18:46.284Z,57.50
2022-11-30T22:21:18.383Z,57.17
2022-11-30T22:23:53.640Z,56.64
2022-11-30T22:26:25.891Z,56.99
2022-11-30T22:28:55.341Z,58.13
2022-11-30T22:31:24.824Z,57.50
2022-11-30T22:33:51.532Z,57.65
2022-11-30T22:36:21.444Z,58.23
2022-11-30T22:38:53.279Z,58.03
2022-11-30T22:41:19.952Z,58.32
2022-11-30T22:43:47.265Z,58.29
2022-11-30T22:46:16.434Z,57.98
2022-11-30T22:48:44.064Z,58.05
2022-11-30T22:51:19.656Z,57.74
2022-11-30T22:53:49.721Z,58.14
2022-11-30T22:56:19.363Z,58.24
2022-11-30T22:58:49.531Z,57.86
2022-11-30T23:01:19.407Z,58.52
2022-11-30T23:03:47.491Z,58.78
2022-11-30T23:06:16.595Z,58.92
2022-11-30T23:08:44.587Z,58.48
2022-11-30T23:11:14.967Z,58.70
2022-11-30T23:13:43.078Z,59.75
2022-11-30T23:16:11.138Z,58.70
2022-11-30T23:18:43.647Z,58.60
2022-11-30T23:21:16.268Z,58.77
2022-11-30T23:23:44.102Z,59.67
2022-11-30T23:26:15.826Z,59.31
2022-11-30T23:28:43.710Z,60.03
2022-11-30T23:31:33.788Z,60.14
2022-11-30T23:33:59.928Z,59.94
2022-11-30T23:36:26.669Z,60.30
2022-11-30T23:38:59.083Z,60.49
2022-11-30T23:41:26.510Z,60.02
2022-11-30T23:43:53.480Z,60.28
2022-11-30T23:46:20.521Z,60.00
2022-11-30T23:48:47.544Z,59.87
2022-11-30T23:51:14.203Z,60.82
2022-11-30T23:53:40.862Z,61.03
2022-11-30T23:56:11.162Z,60.17
2022-11-30T23:58:39.549Z,60.52
